Mr Lloyd — WDB9843 — position and weather

sailwx.info

Track history (hours):
 
Tides and Currents Weather Stations Pressure Air Temp Water Temp Dewpoint Dewpoint Depression Visibility Wind Speed Wind Dir Waves Ship Positions

Mr Lloyd

Owner: D P CREWBOATS LLC, LOCKPORT, LA. More information available from US FCC via Universal Licensing System and Coast Guard Vessel Documentation Center.

Last reported at 2016-May-02 07:33 UTC. Time now 2016-May-02 08:15 UTC.
Position N 29°47' W 093°20'.

Length 48 m; draft 2.5 m.

Type: Passenger vessel. MMSI: 366983730.

Date/timePositionNaut miles runAvg speedWind from/ knotsBaromVisibWave heightAir tempDewpointWater temp
2016-May-02 07:33N 29°47' W 093°20'0 0.0
2016-May-02 06:33N 29°47' W 093°20'0 0.0
2016-May-02 05:33N 29°47' W 093°20'0 0.0
2016-May-02 04:33N 29°47' W 093°20'0 0.0
2016-May-02 03:33N 29°47' W 093°20'0 0.0
2016-May-02 02:33N 29°47' W 093°20'0 0.0
2016-May-02 01:33N 29°47' W 093°20'0 0.0
2016-May-02 00:33N 29°47' W 093°20'0 0.0
2016-May-01 23:33N 29°47' W 093°20'0 0.0
2016-May-01 22:33N 29°47' W 093°20'0 0.0
2016-May-01 21:33N 29°47' W 093°20'0 0.0
2016-May-01 20:33N 29°47' W 093°20'0 0.0
2016-May-01 19:33N 29°47' W 093°20'0 0.0
2016-May-01 18:33N 29°47' W 093°20'0 0.0
2016-May-01 17:33N 29°47' W 093°20'0 0.0
2016-May-01 16:33N 29°47' W 093°20'0 0.0
2016-May-01 15:33N 29°47' W 093°20'0 0.0
2016-May-01 14:33N 29°47' W 093°20'0 0.0
2016-May-01 13:33N 29°47' W 093°20'0 0.0
2016-May-01 12:32N 29°47' W 093°20'0 0.0
2016-May-01 11:33N 29°47' W 093°20'0 0.0
2016-May-01 10:33N 29°47' W 093°20'0 0.0
2016-May-01 09:32N 29°47' W 093°20'0 0.0
2016-May-01 08:33N 29°47' W 093°20'0 0.0
2016-May-01 07:33N 29°47' W 093°20'0 0.0
2016-May-01 06:33N 29°47' W 093°20'0 0.0
2016-May-01 05:33N 29°47' W 093°20'0 0.0
2016-May-01 04:33N 29°47' W 093°20'0 0.0
2016-May-01 03:33N 29°47' W 093°20'0 0.0
2016-May-01 02:33N 29°47' W 093°20'0 0.0
2016-May-01 01:33N 29°47' W 093°20'0 0.0
2016-Apr-30 13:33N 29°47' W 093°20'0 0.0
2016-Apr-30 12:33N 29°47' W 093°20'0 0.0
2016-Apr-30 11:32N 29°47' W 093°20'0 0.0
2016-Apr-30 10:33N 29°47' W 093°20'0 0.0
2016-Apr-30 09:33N 29°47' W 093°20'0 0.0
2016-Apr-30 08:33N 29°47' W 093°20'0 0.0
2016-Apr-30 07:33N 29°47' W 093°20'0 0.0
2016-Apr-30 06:33N 29°47' W 093°20'0 0.0
2016-Apr-30 05:29N 29°47' W 093°20'0 0.0
2016-Apr-30 04:27N 29°47' W 093°20'0 0.0
2016-Apr-30 03:33N 29°47' W 093°20'0 0.2
2016-Apr-30 02:32N 29°47' W 093°20'0 0.0
2016-Apr-29 08:22N 29°46' W 093°21'1 0.7
2016-Apr-29 07:33N 29°47' W 093°20'0 0.0
2016-Apr-29 06:33N 29°47' W 093°20'0 0.0
2016-Apr-29 03:33N 29°47' W 093°20'0 0.0
2016-Apr-29 02:33N 29°47' W 093°20'0 0.0
2016-Apr-29 01:33N 29°47' W 093°20'0 0.0
2016-Apr-28 23:24N 29°47' W 093°20'10 0.6
2016-Apr-28 07:05N 29°39' W 093°14'916.7
2016-Apr-28 06:32N 29°46' W 093°21'1 1.2
2016-Apr-28 05:33N 29°47' W 093°20'0 0.0
2016-Apr-28 04:33N 29°47' W 093°20'0 0.0
2016-Apr-28 03:33N 29°47' W 093°20'0 0.0
2016-Apr-28 02:33N 29°47' W 093°20'0 0.0
2016-Apr-28 01:33N 29°47' W 093°20'0 0.0
2016-Apr-28 00:33N 29°47' W 093°20'0 0.0
2016-Apr-27 23:33N 29°47' W 093°20'0 0.0
2016-Apr-27 22:33N 29°47' W 093°20'0 0.0
2016-Apr-27 21:33N 29°47' W 093°20'0 0.0
2016-Apr-27 20:33N 29°47' W 093°20'0 0.0
2016-Apr-27 19:33N 29°47' W 093°20'0 0.0
2016-Apr-27 18:32N 29°47' W 093°20'0 0.0
2016-Apr-27 17:24N 29°47' W 093°20'0 0.0
2016-Apr-27 16:32N 29°47' W 093°20'0 0.1
2016-Apr-27 15:34N 29°47' W 093°20'7 0.5
2016-Apr-27 01:08N 29°41' W 093°17'711.9
2016-Apr-27 00:33N 29°47' W 093°20'0 0.0
2016-Apr-26 23:33N 29°47' W 093°20'0 0.0
2016-Apr-26 22:33N 29°47' W 093°20'0 0.0
2016-Apr-26 21:33N 29°47' W 093°20'0 0.0
2016-Apr-26 20:33N 29°47' W 093°20'0 0.0
2016-Apr-26 19:33N 29°47' W 093°20'0 0.0
2016-Apr-26 18:32N 29°47' W 093°20'0 0.0
2016-Apr-26 17:33N 29°47' W 093°20'10 1.0
2016-Apr-26 07:23N 29°39' W 093°13'1012.4
2016-Apr-26 06:33N 29°47' W 093°20'0 0.2
2016-Apr-26 05:34N 29°47' W 093°20'0 0.1
2016-Apr-26 03:31N 29°47' W 093°20'1 1.1
2016-Apr-26 02:33N 29°46' W 093°21'5 0.4
2016-Apr-25 14:20N 29°42' W 093°16'6 7.4
2016-Apr-25 13:33N 29°47' W 093°20'0 0.0
2016-Apr-25 12:33N 29°47' W 093°20'0 0.0
2016-Apr-25 11:33N 29°47' W 093°20'0 0.0
2016-Apr-25 10:33N 29°47' W 093°20'0 0.0
2016-Apr-25 09:33N 29°47' W 093°20'0 0.0
2016-Apr-25 08:33N 29°47' W 093°20'0 0.0
2016-Apr-25 07:33N 29°47' W 093°20'0 0.0
2016-Apr-25 06:33N 29°47' W 093°20'0 0.0
2016-Apr-25 05:33N 29°47' W 093°20'0 0.0
2016-Apr-25 04:33N 29°47' W 093°20'0 0.0
2016-Apr-25 03:33N 29°47' W 093°20'0 0.0
2016-Apr-25 02:33N 29°47' W 093°20'0 0.0
2016-Apr-25 01:33N 29°47' W 093°20'0 0.0
2016-Apr-25 00:33N 29°47' W 093°20'0 0.0
2016-Apr-24 23:33N 29°47' W 093°20'0 0.0
2016-Apr-24 22:33N 29°47' W 093°20'0 0.0
2016-Apr-24 21:33N 29°47' W 093°20'0 0.0
2016-Apr-24 20:33N 29°47' W 093°20'0 0.0
2016-Apr-24 19:33N 29°47' W 093°20'0 0.0
2016-Apr-24 18:33N 29°47' W 093°20'0 0.0
2016-Apr-24 17:33N 29°47' W 093°20'0 0.0
2016-Apr-24 16:33N 29°47' W 093°20'0 0.0
2016-Apr-24 15:33N 29°47' W 093°20'0 0.0
2016-Apr-24 14:33N 29°47' W 093°20'0 0.0
2016-Apr-24 13:33N 29°47' W 093°20'0 0.0
2016-Apr-24 12:33N 29°47' W 093°20'0 0.0
2016-Apr-24 11:33N 29°47' W 093°20'0 0.0
2016-Apr-24 10:33N 29°47' W 093°20'6 6.3
2016-Apr-24 09:33N 29°41' W 093°17'2 0.2
2016-Apr-23 19:34N 29°43' W 093°18'4 3.9
2016-Apr-23 18:33N 29°47' W 093°20'0 0.0
2016-Apr-23 17:33N 29°47' W 093°20'0 0.0
2016-Apr-23 16:33N 29°47' W 093°20'0 0.0
2016-Apr-23 15:33N 29°47' W 093°20'0 0.0
2016-Apr-23 14:33N 29°47' W 093°20'1714.9
2016-Apr-23 13:24N 29°35' W 093°06'1820.7
2016-Apr-23 12:33N 29°25' W 092°50'14 1.5
2016-Apr-23 03:12N 29°32' W 093°03'1218.6
2016-Apr-23 02:33N 29°39' W 093°14'9 9.4
2016-Apr-23 01:34N 29°47' W 093°20'0 0.0
2016-Apr-23 00:34N 29°47' W 093°20'5 4.7
2016-Apr-22 23:34N 29°42' W 093°19'11 1.0
2016-Apr-22 12:24N 29°37' W 093°08'1417.1
2016-Apr-22 11:34N 29°46' W 093°21'1 1.2
2016-Apr-22 10:33N 29°47' W 093°20'0 0.0
2016-Apr-22 09:33N 29°47' W 093°20'0 0.0
2016-Apr-22 08:31N 29°47' W 093°20'  
Track history (hours):
 
Tides and Currents Weather Stations Pressure Air Temp Water Temp Dewpoint Dewpoint Depression Visibility Wind Speed Wind Dir Waves Ship Positions

Mr Lloyd

Owner: D P CREWBOATS LLC, LOCKPORT, LA. More information available from US FCC via Universal Licensing System and Coast Guard Vessel Documentation Center.

Last reported at 2016-May-02 07:33 UTC. Time now 2016-May-02 08:15 UTC.
Position N 29°47' W 093°20'.

Length 48 m; draft 2.5 m.

Type: Passenger vessel. MMSI: 366983730.

Date/timePositionNaut miles runAvg speedWind from/ knotsBaromVisibWave heightAir tempDewpointWater temp
2016-May-02 07:33N 29°47' W 093°20'0 0.0
2016-May-02 06:33N 29°47' W 093°20'0 0.0
2016-May-02 05:33N 29°47' W 093°20'0 0.0
2016-May-02 04:33N 29°47' W 093°20'0 0.0
2016-May-02 03:33N 29°47' W 093°20'0 0.0
2016-May-02 02:33N 29°47' W 093°20'0 0.0
2016-May-02 01:33N 29°47' W 093°20'0 0.0
2016-May-02 00:33N 29°47' W 093°20'0 0.0
2016-May-01 23:33N 29°47' W 093°20'0 0.0
2016-May-01 22:33N 29°47' W 093°20'0 0.0
2016-May-01 21:33N 29°47' W 093°20'0 0.0
2016-May-01 20:33N 29°47' W 093°20'0 0.0
2016-May-01 19:33N 29°47' W 093°20'0 0.0
2016-May-01 18:33N 29°47' W 093°20'0 0.0
2016-May-01 17:33N 29°47' W 093°20'0 0.0
2016-May-01 16:33N 29°47' W 093°20'0 0.0
2016-May-01 15:33N 29°47' W 093°20'0 0.0
2016-May-01 14:33N 29°47' W 093°20'0 0.0
2016-May-01 13:33N 29°47' W 093°20'0 0.0
2016-May-01 12:32N 29°47' W 093°20'0 0.0
2016-May-01 11:33N 29°47' W 093°20'0 0.0
2016-May-01 10:33N 29°47' W 093°20'0 0.0
2016-May-01 09:32N 29°47' W 093°20'0 0.0
2016-May-01 08:33N 29°47' W 093°20'0 0.0
2016-May-01 07:33N 29°47' W 093°20'0 0.0
2016-May-01 06:33N 29°47' W 093°20'0 0.0
2016-May-01 05:33N 29°47' W 093°20'0 0.0
2016-May-01 04:33N 29°47' W 093°20'0 0.0
2016-May-01 03:33N 29°47' W 093°20'0 0.0
2016-May-01 02:33N 29°47' W 093°20'0 0.0
2016-May-01 01:33N 29°47' W 093°20'0 0.0
2016-Apr-30 13:33N 29°47' W 093°20'0 0.0
2016-Apr-30 12:33N 29°47' W 093°20'0 0.0
2016-Apr-30 11:32N 29°47' W 093°20'0 0.0
2016-Apr-30 10:33N 29°47' W 093°20'0 0.0
2016-Apr-30 09:33N 29°47' W 093°20'0 0.0
2016-Apr-30 08:33N 29°47' W 093°20'0 0.0
2016-Apr-30 07:33N 29°47' W 093°20'0 0.0
2016-Apr-30 06:33N 29°47' W 093°20'0 0.0
2016-Apr-30 05:29N 29°47' W 093°20'0 0.0
2016-Apr-30 04:27N 29°47' W 093°20'0 0.0
2016-Apr-30 03:33N 29°47' W 093°20'0 0.2
2016-Apr-30 02:32N 29°47' W 093°20'0 0.0
2016-Apr-29 08:22N 29°46' W 093°21'1 0.7
2016-Apr-29 07:33N 29°47' W 093°20'0 0.0
2016-Apr-29 06:33N 29°47' W 093°20'0 0.0
2016-Apr-29 03:33N 29°47' W 093°20'0 0.0
2016-Apr-29 02:33N 29°47' W 093°20'0 0.0
2016-Apr-29 01:33N 29°47' W 093°20'0 0.0
2016-Apr-28 23:24N 29°47' W 093°20'10 0.6
2016-Apr-28 07:05N 29°39' W 093°14'916.7
2016-Apr-28 06:32N 29°46' W 093°21'1 1.2
2016-Apr-28 05:33N 29°47' W 093°20'0 0.0
2016-Apr-28 04:33N 29°47' W 093°20'0 0.0
2016-Apr-28 03:33N 29°47' W 093°20'0 0.0
2016-Apr-28 02:33N 29°47' W 093°20'0 0.0
2016-Apr-28 01:33N 29°47' W 093°20'0 0.0
2016-Apr-28 00:33N 29°47' W 093°20'0 0.0
2016-Apr-27 23:33N 29°47' W 093°20'0 0.0
2016-Apr-27 22:33N 29°47' W 093°20'0 0.0
2016-Apr-27 21:33N 29°47' W 093°20'0 0.0
2016-Apr-27 20:33N 29°47' W 093°20'0 0.0
2016-Apr-27 19:33N 29°47' W 093°20'0 0.0
2016-Apr-27 18:32N 29°47' W 093°20'0 0.0
2016-Apr-27 17:24N 29°47' W 093°20'0 0.0
2016-Apr-27 16:32N 29°47' W 093°20'0 0.1
2016-Apr-27 15:34N 29°47' W 093°20'7 0.5
2016-Apr-27 01:08N 29°41' W 093°17'711.9
2016-Apr-27 00:33N 29°47' W 093°20'0 0.0
2016-Apr-26 23:33N 29°47' W 093°20'0 0.0
2016-Apr-26 22:33N 29°47' W 093°20'0 0.0
2016-Apr-26 21:33N 29°47' W 093°20'0 0.0
2016-Apr-26 20:33N 29°47' W 093°20'0 0.0
2016-Apr-26 19:33N 29°47' W 093°20'0 0.0
2016-Apr-26 18:32N 29°47' W 093°20'0 0.0
2016-Apr-26 17:33N 29°47' W 093°20'10 1.0
2016-Apr-26 07:23N 29°39' W 093°13'1012.4
2016-Apr-26 06:33N 29°47' W 093°20'0 0.2
2016-Apr-26 05:34N 29°47' W 093°20'0 0.1
2016-Apr-26 03:31N 29°47' W 093°20'1 1.1
2016-Apr-26 02:33N 29°46' W 093°21'5 0.4
2016-Apr-25 14:20N 29°42' W 093°16'6 7.4
2016-Apr-25 13:33N 29°47' W 093°20'0 0.0
2016-Apr-25 12:33N 29°47' W 093°20'0 0.0
2016-Apr-25 11:33N 29°47' W 093°20'0 0.0
2016-Apr-25 10:33N 29°47' W 093°20'0 0.0
2016-Apr-25 09:33N 29°47' W 093°20'0 0.0
2016-Apr-25 08:33N 29°47' W 093°20'0 0.0
2016-Apr-25 07:33N 29°47' W 093°20'0 0.0
2016-Apr-25 06:33N 29°47' W 093°20'0 0.0
2016-Apr-25 05:33N 29°47' W 093°20'0 0.0
2016-Apr-25 04:33N 29°47' W 093°20'0 0.0
2016-Apr-25 03:33N 29°47' W 093°20'0 0.0
2016-Apr-25 02:33N 29°47' W 093°20'0 0.0
2016-Apr-25 01:33N 29°47' W 093°20'0 0.0
2016-Apr-25 00:33N 29°47' W 093°20'0 0.0
2016-Apr-24 23:33N 29°47' W 093°20'0 0.0
2016-Apr-24 22:33N 29°47' W 093°20'0 0.0
2016-Apr-24 21:33N 29°47' W 093°20'0 0.0
2016-Apr-24 20:33N 29°47' W 093°20'0 0.0
2016-Apr-24 19:33N 29°47' W 093°20'0 0.0
2016-Apr-24 18:33N 29°47' W 093°20'0 0.0
2016-Apr-24 17:33N 29°47' W 093°20'0 0.0
2016-Apr-24 16:33N 29°47' W 093°20'0 0.0
2016-Apr-24 15:33N 29°47' W 093°20'0 0.0
2016-Apr-24 14:33N 29°47' W 093°20'0 0.0
2016-Apr-24 13:33N 29°47' W 093°20'0 0.0
2016-Apr-24 12:33N 29°47' W 093°20'0 0.0
2016-Apr-24 11:33N 29°47' W 093°20'0 0.0
2016-Apr-24 10:33N 29°47' W 093°20'6 6.3
2016-Apr-24 09:33N 29°41' W 093°17'2 0.2
2016-Apr-23 19:34N 29°43' W 093°18'4 3.9
2016-Apr-23 18:33N 29°47' W 093°20'0 0.0
2016-Apr-23 17:33N 29°47' W 093°20'0 0.0
2016-Apr-23 16:33N 29°47' W 093°20'0 0.0
2016-Apr-23 15:33N 29°47' W 093°20'0 0.0
2016-Apr-23 14:33N 29°47' W 093°20'1714.9
2016-Apr-23 13:24N 29°35' W 093°06'1820.7
2016-Apr-23 12:33N 29°25' W 092°50'14 1.5
2016-Apr-23 03:12N 29°32' W 093°03'1218.6
2016-Apr-23 02:33N 29°39' W 093°14'9 9.4
2016-Apr-23 01:34N 29°47' W 093°20'0 0.0
2016-Apr-23 00:34N 29°47' W 093°20'5 4.7
2016-Apr-22 23:34N 29°42' W 093°19'11 1.0
2016-Apr-22 12:24N 29°37' W 093°08'1417.1
2016-Apr-22 11:34N 29°46' W 093°21'1 1.2
2016-Apr-22 10:33N 29°47' W 093°20'0 0.0
2016-Apr-22 09:33N 29°47' W 093°20'0 0.0
2016-Apr-22 08:31N 29°47' W 093°20'  

Dump ship's entire track history